Time;durP1;ratioP1;P1;durP2;ratioP2;P2;SDS_P1;SDS_P2;PMS_P1;PMS_P2;Temp;Humidity;BMP_temperature;BMP_pressure;BME280_temperature;BME280_humidity;BME280_pressure;Samples;Min_cycle;Max_cycle;Signal;HPM_P1;HPM_P2
2022/08/03 00:00:33;;;;;;;3.25;2.33;;;;;;;21.24;59.92;98622.47;4139839;28;20275;-57
2022/08/03 00:02:35;;;;;;;2.35;2.15;;;;;;;21.22;60.20;98620.00;4134098;28;20286;-58
2022/08/03 00:04:37;;;;;;;2.83;2.15;;;;;;;21.23;60.14;98623.59;4138481;28;20315;-58
2022/08/03 00:06:38;;;;;;;3.40;1.95;;;;;;;21.21;60.32;98628.66;4154751;28;20275;-57
2022/08/03 00:08:40;;;;;;;2.28;2.13;;;;;;;21.13;60.39;98623.84;4140028;28;20703;-57
2022/08/03 00:10:42;;;;;;;1.95;1.85;;;;;;;21.09;60.70;98628.38;4136183;28;20271;-57
2022/08/03 00:12:44;;;;;;;2.70;2.10;;;;;;;21.01;61.17;98627.19;4157312;28;20231;-57
2022/08/03 00:14:46;;;;;;;2.50;2.28;;;;;;;20.96;61.16;98630.09;4140286;28;20243;-57
2022/08/03 00:16:48;;;;;;;4.55;2.30;;;;;;;20.98;61.43;98627.00;4138981;28;20226;-58
2022/08/03 00:18:50;;;;;;;1.85;1.75;;;;;;;20.99;61.20;98628.66;4139619;28;20671;-57
2022/08/03 00:20:52;;;;;;;1.92;1.83;;;;;;;20.97;61.34;98626.16;4156552;28;20216;-58
2022/08/03 00:22:54;;;;;;;3.40;2.50;;;;;;;20.93;61.38;98629.91;4137160;28;20633;-57
2022/08/03 00:24:55;;;;;;;2.58;2.17;;;;;;;20.85;61.52;98622.28;4136553;28;20670;-57
2022/08/03 00:26:57;;;;;;;2.13;1.98;;;;;;;20.82;61.58;98611.75;4138765;28;20228;-57
2022/08/03 00:28:59;;;;;;;3.00;2.53;;;;;;;20.82;61.56;98611.75;4139227;28;20197;-58
2022/08/03 00:31:01;;;;;;;2.35;2.25;;;;;;;20.83;61.51;98608.66;4124143;28;20233;-58
2022/08/03 00:33:03;;;;;;;3.25;2.55;;;;;;;20.78;61.76;98608.78;4139210;28;20788;-58
2022/08/03 00:35:09;;;;;;;2.17;1.98;;;;;;;20.81;61.46;98610.13;4140575;28;20205;-57
2022/08/03 00:37:27;;;;;;;2.38;1.70;;;;;;;20.81;61.29;98612.91;4142945;28;20201;-57
2022/08/03 00:39:44;;;;;;;2.00;1.80;;;;;;;20.81;61.33;98612.91;4139728;28;20328;-58
2022/08/03 00:41:47;;;;;;;3.30;2.03;;;;;;;20.80;61.41;98611.25;4153247;28;20231;-57
2022/08/03 00:43:49;;;;;;;3.25;2.13;;;;;;;20.76;61.60;98602.72;4157335;28;20204;-58
2022/08/03 00:45:51;;;;;;;1.80;1.70;;;;;;;20.72;61.39;98609.22;4122449;28;20666;-58
2022/08/03 00:47:53;;;;;;;2.88;1.98;;;;;;;20.71;61.47;98610.38;4122398;28;20718;-58
2022/08/03 00:49:55;;;;;;;7.32;2.00;;;;;;;20.73;61.61;98608.09;4142022;28;20263;-58
2022/08/03 00:51:58;;;;;;;3.80;1.90;;;;;;;20.73;61.72;98602.53;4122411;28;20632;-58
2022/08/03 00:54:09;;;;;;;2.55;2.28;;;;;;;20.76;61.68;98596.31;4138664;28;20244;-58
2022/08/03 00:56:15;;;;;;;2.47;2.15;;;;;;;20.74;61.75;98598.59;4134609;28;20339;-57
2022/08/03 00:58:17;;;;;;;5.43;2.17;;;;;;;20.71;61.92;98604.81;4136483;28;20267;-58
2022/08/03 01:00:23;;;;;;;1.92;1.83;;;;;;;20.66;62.16;98596.56;4135785;28;20208;-57
2022/08/03 01:02:27;;;;;;;3.53;2.17;;;;;;;20.57;62.12;98598.44;4135789;28;20784;-57
2022/08/03 01:04:29;;;;;;;1.90;1.70;;;;;;;20.53;62.42;98597.41;4131238;28;20249;-57
2022/08/03 01:06:40;;;;;;;2.17;2.05;;;;;;;20.50;62.33;98598.06;4157670;28;20208;-57
2022/08/03 01:09:19;;;;;;;1.98;1.83;;;;;;;20.42;62.44;98601.53;4122664;28;20770;-57
2022/08/03 01:11:32;;;;;;;2.45;2.25;;;;;;;20.39;62.50;98596.63;4080432;28;20789;-57
2022/08/03 01:13:46;;;;;;;1.95;1.85;;;;;;;20.36;62.55;98592.50;4137786;28;20943;-57
2022/08/03 01:16:22;;;;;;;2.28;1.63;;;;;;;20.38;62.72;98587.44;4151928;28;21090;-58
2022/08/03 01:18:55;;;;;;;2.40;2.28;;;;;;;20.40;62.77;98598.25;4159745;28;20205;-58
2022/08/03 01:20:59;;;;;;;4.85;2.22;;;;;;;20.33;62.92;98586.75;4158921;28;20207;-58
2022/08/03 01:23:37;;;;;;;2.35;2.17;;;;;;;20.26;63.28;98597.47;4133906;28;20245;-58
2022/08/03 01:26:02;;;;;;;2.00;1.90;;;;;;;20.25;63.18;98590.25;4105353;28;20212;-58
2022/08/03 01:28:35;;;;;;;1.95;1.85;;;;;;;20.25;63.12;98590.25;4141296;28;20209;-58
2022/08/03 01:30:38;;;;;;;2.35;2.25;;;;;;;20.25;63.12;98584.72;4133673;28;20210;-58
2022/08/03 01:33:15;;;;;;;2.78;2.08;;;;;;;20.26;62.95;98589.13;4139526;28;20250;-58
2022/08/03 01:35:42;;;;;;;2.50;2.30;;;;;;;20.22;63.23;98582.53;4103334;28;20216;-57
2022/08/03 01:37:51;;;;;;;2.05;1.85;;;;;;;20.17;63.26;98577.91;4132268;28;20271;-58
2022/08/03 01:39:55;;;;;;;2.95;2.45;;;;;;;20.13;63.22;98581.63;4140183;28;20201;-58
2022/08/03 01:41:59;;;;;;;1.70;1.60;;;;;;;20.05;63.52;98579.53;4121785;28;20252;-58
2022/08/03 01:44:03;;;;;;;2.05;1.95;;;;;;;20.00;63.68;98585.19;4132009;28;20275;-58
2022/08/03 01:46:25;;;;;;;2.00;1.90;;;;;;;19.95;63.73;98574.19;4154394;28;20205;-57
2022/08/03 01:48:27;;;;;;;2.35;2.15;;;;;;;19.93;63.71;98582.84;4131141;28;20272;-57
2022/08/03 01:50:30;;;;;;;2.50;2.30;;;;;;;19.94;63.89;98580.88;4139450;28;20212;-58
2022/08/03 01:52:32;;;;;;;2.72;2.13;;;;;;;19.94;63.46;98583.66;4138197;28;20255;-58
2022/08/03 01:54:36;;;;;;;2.22;2.03;;;;;;;19.89;63.74;98586.53;4140398;28;20201;-58
2022/08/03 01:56:39;;;;;;;2.25;2.15;;;;;;;19.82;63.94;98591.66;4136938;28;20220;-57
2022/08/03 01:58:42;;;;;;;1.92;1.80;;;;;;;19.75;64.20;98583.75;4139327;28;20259;-57
2022/08/03 02:00:45;;;;;;;2.55;2.35;;;;;;;19.71;64.16;98584.69;4119831;28;20233;-58
2022/08/03 02:02:49;;;;;;;2.22;2.05;;;;;;;19.70;64.58;98580.22;4137086;28;20249;-58
2022/08/03 02:04:53;;;;;;;2.03;1.92;;;;;;;19.65;64.80;98581.16;4134120;28;20686;-57
2022/08/03 02:06:55;;;;;;;2.90;2.58;;;;;;;19.60;65.04;98581.28;4138121;28;20225;-58
2022/08/03 02:09:05;;;;;;;2.28;2.17;;;;;;;19.56;65.17;98577.47;4156228;28;20215;-58
2022/08/03 02:11:06;;;;;;;2.15;2.03;;;;;;;19.54;65.10;98573.34;4138174;28;20269;-57
2022/08/03 02:13:09;;;;;;;2.55;2.35;;;;;;;19.55;64.83;98574.97;4155401;28;20209;-58
2022/08/03 02:15:11;;;;;;;2.53;2.33;;;;;;;19.59;64.89;98573.25;4136750;28;20209;-57
2022/08/03 02:17:15;;;;;;;2.80;2.60;;;;;;;19.59;64.73;98578.81;4139458;28;20260;-57
2022/08/03 02:19:17;;;;;;;2.28;2.08;;;;;;;19.56;64.92;98582.19;4124415;28;20221;-57
2022/08/03 02:21:19;;;;;;;5.47;2.38;;;;;;;19.53;64.82;98574.47;4121982;28;20238;-57
2022/08/03 02:23:41;;;;;;;2.90;2.60;;;;;;;19.49;64.89;98573.44;4127753;28;20214;-57
2022/08/03 02:25:47;;;;;;;2.63;2.42;;;;;;;19.48;65.23;98574.56;4121657;28;20206;-58
2022/08/03 02:27:58;;;;;;;2.70;2.50;;;;;;;19.46;65.14;98576.81;4160317;28;20240;-58
2022/08/03 02:30:05;;;;;;;2.88;2.67;;;;;;;19.43;65.09;98575.47;4155584;28;20317;-57
2022/08/03 02:32:20;;;;;;;2.85;2.65;;;;;;;19.39;65.40;98570.84;4138306;28;20231;-57
2022/08/03 02:34:25;;;;;;;2.28;2.08;;;;;;;19.35;65.61;98564.25;4157066;28;20574;-58
2022/08/03 02:36:34;;;;;;;3.00;2.80;;;;;;;19.31;65.75;98571.56;4143855;28;20631;-57
2022/08/03 02:38:40;;;;;;;2.38;2.17;;;;;;;19.31;65.76;98566.00;4144565;28;20279;-58
2022/08/03 02:40:43;;;;;;;3.42;2.30;;;;;;;19.31;65.82;98557.69;4158805;28;20204;-58
2022/08/03 02:42:46;;;;;;;2.95;2.75;;;;;;;19.31;65.75;98571.56;4125545;28;20968;-58
2022/08/03 02:44:49;;;;;;;2.40;2.13;;;;;;;19.30;65.69;98569.88;4161031;28;20416;-57
2022/08/03 02:46:54;;;;;;;2.40;2.30;;;;;;;19.28;65.68;98564.66;4127066;28;20210;-57
2022/08/03 02:48:58;;;;;;;2.55;2.35;;;;;;;19.26;65.74;98568.88;4162590;28;20246;-58
2022/08/03 02:51:21;;;;;;;2.55;2.35;;;;;;;19.20;65.92;98561.75;4130464;28;20806;-58
2022/08/03 02:53:23;;;;;;;2.40;2.28;;;;;;;19.19;65.95;98565.63;4143971;28;20256;-58
2022/08/03 02:55:28;;;;;;;4.38;2.28;;;;;;;19.20;65.87;98562.59;4142683;28;20217;-58
2022/08/03 02:57:30;;;;;;;3.20;2.83;;;;;;;19.19;66.12;98565.63;4141147;28;20281;-57
2022/08/03 02:59:36;;;;;;;2.92;2.40;;;;;;;19.14;66.01;98557.41;4143810;28;20706;-57
2022/08/03 03:01:38;;;;;;;6.13;3.42;;;;;;;19.11;66.03;98564.38;4160541;28;20604;-57
2022/08/03 03:03:40;;;;;;;3.35;2.95;;;;;;;19.11;66.28;98569.13;4143003;28;20209;-58
2022/08/03 03:05:46;;;;;;;3.35;3.03;;;;;;;19.10;66.33;98561.88;4140297;28;20487;-56
2022/08/03 03:07:56;;;;;;;3.22;2.80;;;;;;;19.12;66.16;98559.66;4141901;28;20307;-58
2022/08/03 03:09:58;;;;;;;2.53;2.33;;;;;;;19.15;66.30;98556.25;4123810;28;20241;-58
2022/08/03 03:12:00;;;;;;;3.05;2.85;;;;;;;19.16;66.29;98560.69;4139711;28;20225;-58
2022/08/03 03:14:03;;;;;;;2.92;2.67;;;;;;;19.12;66.57;98559.66;4122945;28;20209;-58
2022/08/03 03:16:11;;;;;;;3.13;2.58;;;;;;;19.06;66.59;98560.88;4157982;28;20255;-57
2022/08/03 03:18:14;;;;;;;2.72;2.38;;;;;;;18.98;66.90;98561.56;4138236;28;20216;-57
2022/08/03 03:20:23;;;;;;;2.40;2.30;;;;;;;18.92;66.66;98565.56;4122194;28;20208;-57
2022/08/03 03:22:32;;;;;;;3.97;2.88;;;;;;;18.86;67.15;98561.22;4129891;28;20226;-57
2022/08/03 03:24:35;;;;;;;3.75;2.72;;;;;;;18.82;67.10;98560.16;4135543;28;20265;-57
2022/08/03 03:26:37;;;;;;;2.40;2.30;;;;;;;18.79;67.18;98566.31;4125731;28;20214;-57
2022/08/03 03:28:43;;;;;;;3.03;2.83;;;;;;;18.80;67.31;98562.41;4126021;28;20360;-57
2022/08/03 03:30:45;;;;;;;2.78;2.13;;;;;;;18.81;67.06;98559.34;4140940;28;21909;-58
2022/08/03 03:32:54;;;;;;;2.67;2.47;;;;;;;18.84;66.98;98569.00;4143220;28;20225;-57
2022/08/03 03:34:58;;;;;;;2.72;2.17;;;;;;;18.83;66.96;98567.34;4140117;28;20214;-58
2022/08/03 03:37:00;;;;;;;3.40;3.10;;;;;;;18.84;66.94;98569.00;4126409;28;20575;-58
2022/08/03 03:39:02;;;;;;;2.60;2.40;;;;;;;18.85;67.05;98570.66;4157800;28;20216;-57
2022/08/03 03:41:16;;;;;;;2.88;2.63;;;;;;;18.83;67.22;98570.94;4158050;28;20235;-57
2022/08/03 03:43:22;;;;;;;2.10;2.00;;;;;;;18.80;66.85;98570.72;4124831;28;20217;-58
2022/08/03 03:45:25;;;;;;;4.10;2.47;;;;;;;18.78;67.01;98573.00;4140492;28;20201;-58
2022/08/03 03:47:27;;;;;;;2.85;2.65;;;;;;;18.77;67.15;98568.56;4139763;28;20233;-57
2022/08/03 03:49:33;;;;;;;2.63;2.42;;;;;;;18.77;67.21;98568.56;4125811;28;20213;-58
2022/08/03 03:51:35;;;;;;;2.40;2.20;;;;;;;18.75;67.30;98573.56;4159635;28;20232;-58
2022/08/03 03:53:37;;;;;;;2.90;2.70;;;;;;;18.75;67.27;98568.03;4140820;28;20209;-58
2022/08/03 03:55:39;;;;;;;3.30;2.97;;;;;;;18.68;67.62;98571.19;4137682;28;20209;-58
2022/08/03 03:58:02;;;;;;;3.15;2.65;;;;;;;18.58;67.74;98565.78;4131607;28;20207;-58
2022/08/03 04:00:05;;;;;;;3.10;2.90;;;;;;;18.51;67.88;98570.09;4143161;28;20205;-58
2022/08/03 04:02:08;;;;;;;2.55;2.35;;;;;;;18.49;67.98;98566.75;4160100;28;20883;-58
2022/08/03 04:11:26;;;;;;;4.35;2.85;;;;;;;18.41;68.53;98568.28;4159097;28;20275;-58
2022/08/03 04:13:50;;;;;;;2.85;2.65;;;;;;;18.37;68.62;98566.38;4121093;28;20277;-58
2022/08/03 04:15:54;;;;;;;3.20;2.90;;;;;;;18.35;68.89;98569.47;4155150;28;20196;-58
2022/08/03 04:17:57;;;;;;;5.20;2.78;;;;;;;18.35;68.72;98565.88;4137670;28;20572;-57
2022/08/03 04:20:00;;;;;;;2.80;2.60;;;;;;;18.16;69.62;98562.22;4140802;28;20312;-57
2022/08/03 04:22:06;;;;;;;2.63;2.47;;;;;;;18.17;69.46;98564.69;4139911;28;20230;-57
2022/08/03 04:24:09;;;;;;;5.55;3.15;;;;;;;18.22;69.28;98564.63;4158007;28;20205;-57
2022/08/03 04:26:12;;;;;;;3.17;2.90;;;;;;;18.24;69.12;98562.38;4139901;28;20751;-57
2022/08/03 04:28:14;;;;;;;3.45;2.80;;;;;;;18.31;68.85;98575.91;4137911;28;20256;-57
2022/08/03 04:30:35;;;;;;;3.33;3.13;;;;;;;18.32;68.63;98577.56;4124746;28;20214;-57
2022/08/03 04:32:37;;;;;;;2.47;2.38;;;;;;;18.35;68.45;98577.78;4142330;28;20525;-57
2022/08/03 04:34:46;;;;;;;2.83;2.67;;;;;;;18.39;68.49;98586.34;4141795;28;20241;-57
2022/08/03 04:36:49;;;;;;;3.22;2.88;;;;;;;18.40;68.38;98583.28;4142277;28;20268;-57
2022/08/03 04:39:03;;;;;;;2.45;2.25;;;;;;;18.43;68.31;98584.59;4135336;28;20210;-57
2022/08/03 04:41:06;;;;;;;2.85;2.63;;;;;;;18.44;68.14;98583.50;4141509;28;20197;-57
2022/08/03 04:43:09;;;;;;;2.70;2.50;;;;;;;18.45;68.37;98576.81;4152593;28;20209;-58
2022/08/03 04:45:12;;;;;;;2.92;2.72;;;;;;;18.47;68.00;98574.56;4135357;28;20948;-59
2022/08/03 04:47:14;;;;;;;2.63;2.42;;;;;;;18.49;68.12;98583.41;4141282;28;20271;-58
2022/08/03 04:49:17;;;;;;;2.83;2.63;;;;;;;18.48;68.25;98581.75;4141864;28;20320;-58
2022/08/03 04:51:20;;;;;;;3.20;2.55;;;;;;;18.47;68.01;98580.09;4126115;28;20671;-59
2022/08/03 04:53:22;;;;;;;3.22;2.92;;;;;;;18.47;68.06;98580.09;4139829;28;20660;-58
2022/08/03 04:55:31;;;;;;;3.15;2.53;;;;;;;18.48;68.03;98590.91;4143281;28;20264;-59
2022/08/03 04:57:32;;;;;;;4.35;2.60;;;;;;;18.50;67.84;98587.81;4160355;28;20204;-59
2022/08/03 04:59:34;;;;;;;5.97;2.60;;;;;;;18.51;67.74;98592.25;4143983;28;20241;-58
2022/08/03 05:01:41;;;;;;;2.60;2.40;;;;;;;18.51;67.72;98592.25;4139395;28;20232;-61
2022/08/03 05:03:43;;;;;;;4.72;2.63;;;;;;;18.53;67.87;98595.53;4135667;28;20263;-60
2022/08/03 05:05:44;;;;;;;3.33;2.53;;;;;;;18.55;67.64;98593.28;4136016;28;20926;-60
2022/08/03 05:07:51;;;;;;;2.83;2.60;;;;;;;18.53;67.79;98595.53;4154117;28;20888;-58
2022/08/03 05:09:53;;;;;;;6.90;3.08;;;;;;;18.55;67.77;98590.53;4135879;28;20217;-60
2022/08/03 05:12:04;;;;;;;2.95;2.75;;;;;;;18.55;68.04;98596.06;4133206;28;20237;-58
2022/08/03 05:14:06;;;;;;;3.25;2.63;;;;;;;18.56;67.91;98594.94;4132242;28;20632;-60
2022/08/03 05:16:07;;;;;;;3.08;2.83;;;;;;;18.59;67.73;98588.81;4151969;28;20258;-59
2022/08/03 05:18:09;;;;;;;3.15;2.95;;;;;;;18.63;67.46;98599.00;4140509;28;20232;-58
2022/08/03 05:20:15;;;;;;;3.22;2.97;;;;;;;18.71;67.52;98597.50;4154649;28;20201;-59
2022/08/03 05:22:20;;;;;;;3.17;2.97;;;;;;;18.69;67.97;98594.19;4134967;28;20244;-60
2022/08/03 05:24:22;;;;;;;23.73;3.85;;;;;;;18.71;67.79;98608.59;4140303;28;20206;-61
2022/08/03 05:26:24;;;;;;;3.28;3.08;;;;;;;18.76;67.51;98600.19;4125939;28;20260;-57
2022/08/03 05:28:27;;;;;;;3.35;3.05;;;;;;;18.81;67.29;98598.16;4142892;28;20644;-57
2022/08/03 05:30:29;;;;;;;3.53;3.17;;;;;;;18.87;67.07;98596.97;4121164;28;20232;-59
2022/08/03 05:32:34;;;;;;;4.10;2.80;;;;;;;18.97;66.88;98604.31;4138027;28;20229;-59
2022/08/03 05:34:36;;;;;;;6.53;2.95;;;;;;;19.05;66.69;98598.06;4141735;28;20687;-57
2022/08/03 05:36:38;;;;;;;3.08;2.80;;;;;;;19.16;66.66;98610.63;4119179;28;20221;-61
2022/08/03 05:38:40;;;;;;;3.65;3.05;;;;;;;19.29;66.57;98599.59;4140487;28;20209;-60
2022/08/03 05:40:42;;;;;;;3.50;3.22;;;;;;;19.37;66.88;98596.13;4152866;28;20213;-59
2022/08/03 05:43:00;;;;;;;7.70;2.70;;;;;;;19.56;68.25;98594.13;4143931;28;20592;-60
2022/08/03 05:45:14;;;;;;;3.05;2.83;;;;;;;19.73;67.43;98599.06;4139477;28;20268;-58
2022/08/03 05:47:16;;;;;;;3.22;3.00;;;;;;;19.97;67.05;98605.28;4139556;28;20209;-58
2022/08/03 05:49:18;;;;;;;9.05;2.95;;;;;;;20.15;66.34;98601.56;4138231;28;20719;-57
2022/08/03 05:51:20;;;;;;;4.47;2.40;;;;;;;20.31;65.92;98594.59;4142404;28;20228;-58
2022/08/03 05:53:22;;;;;;;3.40;2.80;;;;;;;20.51;65.46;98606.06;4137626;28;20201;-58
2022/08/03 05:55:23;;;;;;;3.10;2.85;;;;;;;20.66;64.88;98602.13;4158638;28;20205;-57
2022/08/03 05:57:25;;;;;;;4.65;3.60;;;;;;;20.80;64.55;98606.53;4140981;28;20240;-58
2022/08/03 05:59:27;;;;;;;5.50;2.78;;;;;;;21.02;64.73;98602.94;4140745;28;20201;-58
2022/08/03 06:01:38;;;;;;;2.67;2.47;;;;;;;21.09;64.00;98609.75;4142155;28;20734;-58
2022/08/03 06:03:40;;;;;;;3.78;3.13;;;;;;;21.23;63.46;98609.69;4142960;28;20200;-58
2022/08/03 06:05:42;;;;;;;2.55;2.45;;;;;;;21.37;62.97;98610.44;4134377;28;20217;-57
2022/08/03 06:08:01;;;;;;;2.95;2.72;;;;;;;21.49;63.23;98605.94;4143347;28;20223;-58
2022/08/03 06:10:04;;;;;;;2.38;2.22;;;;;;;21.63;62.30;98605.84;4142941;28;20209;-58
2022/08/03 06:12:26;;;;;;;2.55;2.35;;;;;;;21.81;62.03;98607.59;4151784;28;20311;-57
2022/08/03 06:14:27;;;;;;;2.60;2.40;;;;;;;21.90;61.90;98611.28;4142921;28;20204;-57
2022/08/03 06:16:29;;;;;;;3.55;2.65;;;;;;;22.06;61.05;98606.91;4123646;28;21210;-57
2022/08/03 06:18:31;;;;;;;4.05;2.53;;;;;;;22.21;61.56;98600.88;4142531;28;20258;-60
2022/08/03 06:20:42;;;;;;;2.50;2.30;;;;;;;22.30;60.69;98596.16;4144176;28;20216;-59
2022/08/03 06:22:44;;;;;;;3.17;2.20;;;;;;;22.40;60.73;98593.06;4140948;28;20251;-58
2022/08/03 06:24:51;;;;;;;2.78;2.28;;;;;;;22.47;60.50;98594.28;4143077;28;20330;-60
2022/08/03 06:26:55;;;;;;;2.92;2.28;;;;;;;22.45;60.67;98590.97;4147264;28;20287;-57
2022/08/03 06:28:57;;;;;;;2.20;2.00;;;;;;;22.61;60.02;98596.91;4143752;28;20220;-58
2022/08/03 06:31:08;;;;;;;5.38;2.35;;;;;;;22.43;59.72;98604.41;4128676;28;20205;-58
2022/08/03 06:33:25;;;;;;;2.38;2.17;;;;;;;22.58;60.47;98600.34;4147050;28;20275;-58
2022/08/03 06:35:47;;;;;;;2.22;2.03;;;;;;;22.73;60.19;98597.09;4146336;28;20566;-58
2022/08/03 06:37:50;;;;;;;3.13;2.33;;;;;;;22.94;59.86;98598.09;4143088;28;20671;-58
2022/08/03 06:39:53;;;;;;;2.47;2.28;;;;;;;23.08;59.22;98607.94;4125942;28;20337;-61
2022/08/03 06:41:54;;;;;;;5.57;1.98;;;;;;;23.24;59.05;98597.94;4158070;28;20250;-58
2022/08/03 06:43:59;;;;;;;3.28;2.63;;;;;;;23.37;59.15;98607.31;4161002;28;20287;-58
2022/08/03 06:46:04;;;;;;;4.38;2.20;;;;;;;23.57;58.62;98595.44;4122102;28;20213;-59
2022/08/03 06:48:09;;;;;;;2.33;2.22;;;;;;;23.69;58.40;98603.97;4140310;28;20220;-57
2022/08/03 06:50:11;;;;;;;2.90;2.45;;;;;;;23.79;57.79;98605.22;4122788;28;20213;-60
2022/08/03 06:52:19;;;;;;;9.65;4.05;;;;;;;23.52;57.51;98610.41;4157193;28;20223;-59
2022/08/03 06:54:39;;;;;;;2.60;2.40;;;;;;;23.87;57.92;98597.16;4142012;28;20686;-58
2022/08/03 06:56:40;;;;;;;3.53;2.85;;;;;;;24.00;56.41;98599.78;4141103;28;20323;-56
2022/08/03 06:58:42;;;;;;;2.45;2.08;;;;;;;24.15;56.84;98597.25;4141688;28;20204;-59
2022/08/03 07:00:51;;;;;;;2.15;2.00;;;;;;;24.26;56.74;98608.88;4126847;28;20602;-58
2022/08/03 07:02:54;;;;;;;5.05;2.10;;;;;;;24.32;56.75;98605.53;4128707;28;20232;-60
2022/08/03 07:04:59;;;;;;;1.92;1.80;;;;;;;24.54;56.34;98610.81;4160383;28;20261;-59
2022/08/03 07:07:01;;;;;;;2.17;1.92;;;;;;;24.56;55.57;98613.31;4144016;28;20213;-59
2022/08/03 07:09:02;;;;;;;2.17;1.90;;;;;;;24.78;55.69;98618.59;4140413;28;20706;-59
2022/08/03 07:11:05;;;;;;;2.08;1.88;;;;;;;24.86;54.16;98612.94;4138840;28;20205;-55
2022/08/03 07:13:07;;;;;;;2.22;1.95;;;;;;;24.98;53.86;98610.22;4140246;28;20209;-51
2022/08/03 07:15:09;;;;;;;4.82;2.00;;;;;;;25.14;53.92;98608.44;4144449;28;20586;-52
2022/08/03 07:17:33;;;;;;;2.95;1.70;;;;;;;25.21;53.72;98619.94;4145930;28;20197;-51
2022/08/03 07:19:35;;;;;;;1.92;1.83;;;;;;;25.45;53.32;98616.47;4158231;28;20204;-51
2022/08/03 07:21:37;;;;;;;2.63;2.03;;;;;;;25.53;53.48;98616.34;4144579;28;20734;-51
2022/08/03 07:23:39;;;;;;;3.70;2.13;;;;;;;25.60;52.90;98622.22;4141779;28;20212;-52
2022/08/03 07:25:41;;;;;;;2.05;1.50;;;;;;;25.66;53.26;98615.22;4143428;28;20205;-53
2022/08/03 07:27:43;;;;;;;1.77;1.67;;;;;;;25.86;52.84;98619.97;4158578;28;20199;-52
2022/08/03 07:29:51;;;;;;;2.40;2.20;;;;;;;25.95;52.56;98617.94;4145041;28;20216;-51
2022/08/03 07:31:56;;;;;;;2.20;1.65;;;;;;;26.12;51.93;98623.31;4140859;28;20594;-53
2022/08/03 07:34:00;;;;;;;2.08;1.90;;;;;;;25.96;51.38;98619.56;4156363;28;20223;-52
2022/08/03 07:36:02;;;;;;;1.60;1.50;;;;;;;26.15;51.91;98622.66;4155779;28;20208;-52
2022/08/03 07:38:04;;;;;;;2.08;1.88;;;;;;;26.34;51.08;98619.25;4141927;28;20254;-52
2022/08/03 07:40:06;;;;;;;2.25;1.83;;;;;;;26.39;51.15;98617.03;4142428;28;20200;-51
2022/08/03 07:42:08;;;;;;;2.72;1.73;;;;;;;26.59;50.90;98616.13;4137404;28;20657;-51
2022/08/03 07:44:11;;;;;;;1.67;1.33;;;;;;;26.68;50.56;98614.03;4141877;28;20227;-52
2022/08/03 07:46:13;;;;;;;2.17;2.03;;;;;;;26.92;49.99;98616.78;4142159;28;20213;-51
2022/08/03 07:48:16;;;;;;;1.80;1.70;;;;;;;27.28;49.73;98619.53;4159055;28;20215;-51
2022/08/03 07:50:17;;;;;;;2.50;1.75;;;;;;;27.25;49.61;98614.63;4143206;28;20223;-51
2022/08/03 07:54:39;;;;;;;2.30;1.98;;;;;;;27.55;48.21;98615.09;4159650;28;20318;-51
2022/08/03 07:56:41;;;;;;;5.30;2.17;;;;;;;27.34;47.42;98604.06;4161052;28;20328;-52
2022/08/03 07:58:44;;;;;;;1.90;1.70;;;;;;;27.37;47.58;98608.97;4129352;28;20293;-51
2022/08/03 08:00:46;;;;;;;2.20;1.73;;;;;;;27.70;47.88;98609.50;4132831;28;20219;-52
2022/08/03 08:02:48;;;;;;;3.85;1.77;;;;;;;28.04;47.76;98599.59;4152537;28;20237;-52
2022/08/03 08:04:50;;;;;;;3.63;1.48;;;;;;;28.20;47.07;98612.50;4126782;28;20241;-51
2022/08/03 08:06:54;;;;;;;2.30;1.40;;;;;;;28.57;46.72;98608.25;4146082;28;20236;-51
2022/08/03 08:09:01;;;;;;;2.63;1.70;;;;;;;28.71;46.56;98614.22;4147023;28;20225;-53
2022/08/03 08:11:03;;;;;;;3.05;1.65;;;;;;;28.92;45.61;98611.91;4162322;28;20718;-51
2022/08/03 08:13:05;;;;;;;10.07;1.70;;;;;;;28.79;43.62;98610.41;4160597;28;20200;-51
2022/08/03 08:15:08;;;;;;;2.88;2.05;;;;;;;28.90;43.34;98605.00;4158771;28;20351;-54
2022/08/03 08:17:10;;;;;;;3.78;1.73;;;;;;;28.55;43.34;98599.38;4144040;28;20204;-52
2022/08/03 08:19:13;;;;;;;4.35;1.80;;;;;;;28.57;43.65;98607.44;4141537;28;20201;-52
2022/08/03 08:21:15;;;;;;;2.13;1.58;;;;;;;28.61;43.76;98609.19;4127343;28;20253;-52
2022/08/03 08:23:23;;;;;;;2.25;1.30;;;;;;;28.46;43.43;98601.53;4142281;28;20205;-52
2022/08/03 08:25:44;;;;;;;1.33;1.23;;;;;;;28.96;43.72;98607.22;4129153;28;20209;-52
2022/08/03 08:27:48;;;;;;;2.33;1.50;;;;;;;29.53;43.22;98607.28;4142335;28;21145;-52
2022/08/03 08:30:11;;;;;;;6.03;1.77;;;;;;;29.97;42.66;98600.09;4131904;28;20243;-51
2022/08/03 08:32:19;;;;;;;20.20;1.40;;;;;;;30.26;41.98;98599.44;4142945;28;20731;-53
2022/08/03 08:34:21;;;;;;;2.60;1.17;;;;;;;30.22;40.88;98598.56;4125808;28;20412;-52
2022/08/03 08:36:23;;;;;;;3.65;1.00;;;;;;;29.99;37.68;98600.53;4143112;28;20244;-52
2022/08/03 08:38:26;;;;;;;1.33;1.00;;;;;;;29.77;38.89;98590.03;4144708;28;20245;-51
2022/08/03 08:40:28;;;;;;;2.15;1.00;;;;;;;30.06;40.08;98603.47;4161831;28;20197;-50
2022/08/03 08:42:33;;;;;;;1.95;0.90;;;;;;;30.20;38.82;98592.50;4126816;28;20308;-51
2022/08/03 08:44:38;;;;;;;1.15;0.95;;;;;;;30.83;38.99;98596.38;4127290;28;20309;-51
2022/08/03 08:46:40;;;;;;;1.60;1.02;;;;;;;30.88;39.11;98596.06;4144502;28;20204;-51
2022/08/03 08:48:43;;;;;;;1.45;0.90;;;;;;;31.09;38.57;98585.06;4143801;28;20258;-51
2022/08/03 08:50:45;;;;;;;1.80;1.05;;;;;;;31.35;38.37;98582.22;4161826;28;20208;-52
2022/08/03 08:52:49;;;;;;;3.55;0.88;;;;;;;31.48;37.42;98584.38;4143301;28;20296;-50
2022/08/03 08:55:03;;;;;;;1.05;0.82;;;;;;;31.82;37.34;98586.03;4160578;28;20219;-51
2022/08/03 08:57:05;;;;;;;1.13;0.90;;;;;;;31.05;34.63;98584.19;4143873;28;20216;-50
2022/08/03 08:59:27;;;;;;;2.38;1.00;;;;;;;30.79;36.50;98587.03;4145318;28;20200;-51
2022/08/03 09:01:49;;;;;;;1.60;1.17;;;;;;;31.05;35.89;98575.69;4145862;28;20408;-51
2022/08/03 09:03:52;;;;;;;3.28;2.47;;;;;;;31.14;35.25;98579.06;4142577;28;20271;-53
2022/08/03 09:05:55;;;;;;;1.52;1.20;;;;;;;31.40;35.58;98579.06;4142322;28;20292;-52
2022/08/03 09:07:57;;;;;;;0.98;0.98;;;;;;;31.39;35.73;98585.88;4141013;28;20253;-52
2022/08/03 09:09:59;;;;;;;1.35;1.23;;;;;;;31.54;35.21;98579.22;4143409;28;20311;-51
2022/08/03 09:12:15;;;;;;;1.42;1.33;;;;;;;31.79;34.93;98577.50;4146686;28;20223;-51
2022/08/03 09:14:37;;;;;;;1.38;1.00;;;;;;;32.06;35.63;98573.38;4133616;28;20223;-53
2022/08/03 09:17:01;;;;;;;1.08;1.08;;;;;;;32.32;35.29;98581.72;4147367;28;20674;-51
2022/08/03 09:19:13;;;;;;;1.20;1.05;;;;;;;32.34;33.96;98573.66;4161847;28;20204;-50
2022/08/03 09:21:23;;;;;;;1.10;1.00;;;;;;;31.95;35.19;98572.44;4162754;28;20204;-51
2022/08/03 09:23:50;;;;;;;1.45;1.35;;;;;;;32.06;33.69;98579.03;4144701;28;20208;-50
2022/08/03 09:26:03;;;;;;;1.10;1.00;;;;;;;31.82;34.55;98576.75;4120890;28;20203;-51
2022/08/03 09:28:18;;;;;;;1.38;1.10;;;;;;;32.44;34.53;98582.25;4125117;28;20201;-50
2022/08/03 09:30:46;;;;;;;2.17;1.85;;;;;;;31.65;34.18;98580.16;4145646;28;20266;-51
2022/08/03 09:32:49;;;;;;;1.08;1.00;;;;;;;31.66;34.56;98576.94;4139888;28;20303;-50
2022/08/03 09:34:52;;;;;;;0.90;0.90;;;;;;;31.94;34.39;98582.94;4150830;28;20262;-51
2022/08/03 09:36:58;;;;;;;1.52;0.95;;;;;;;31.80;33.91;98584.81;4152879;28;20245;-50
2022/08/03 09:39:09;;;;;;;1.50;0.93;;;;;;;31.81;34.18;98578.75;4141093;28;20639;-50
2022/08/03 09:41:17;;;;;;;1.95;1.83;;;;;;;32.05;34.03;98574.53;4142422;28;20555;-50
2022/08/03 09:43:19;;;;;;;1.33;0.90;;;;;;;31.96;32.86;98571.22;4142123;28;20211;-50
2022/08/03 09:45:25;;;;;;;1.10;1.05;;;;;;;31.73;33.58;98570.59;4159345;28;20740;-51
2022/08/03 09:47:29;;;;;;;0.90;0.70;;;;;;;31.94;33.34;98570.81;4152061;28;20669;-50
2022/08/03 09:49:31;;;;;;;0.77;0.77;;;;;;;31.84;33.31;98561.00;4141813;28;20290;-52
2022/08/03 09:51:33;;;;;;;0.75;0.75;;;;;;;32.22;33.24;98556.91;4153293;28;20266;-49
2022/08/03 09:53:58;;;;;;;1.65;1.15;;;;;;;32.02;33.08;98561.16;4146391;28;21000;-51
2022/08/03 09:56:01;;;;;;;1.00;1.00;;;;;;;31.94;33.65;98553.81;4125657;28;20244;-51
2022/08/03 09:58:25;;;;;;;1.88;0.80;;;;;;;32.19;33.89;98555.66;4128542;28;20654;-51
2022/08/03 10:00:27;;;;;;;2.10;1.10;;;;;;;32.73;33.63;98563.44;4140939;28;20212;-51
2022/08/03 10:02:29;;;;;;;2.47;1.10;;;;;;;33.04;33.23;98555.16;4139501;28;20225;-51
2022/08/03 10:04:30;;;;;;;1.20;0.77;;;;;;;32.58;32.82;98561.69;4139284;28;20217;-52